createdAt,value
2023-09-17T09:59:17.920Z,19.89
2023-09-17T10:09:31.818Z,20.07
2023-09-17T10:19:39.772Z,20.51
2023-09-17T10:29:50.348Z,21.12
2023-09-17T10:39:58.008Z,21.52
2023-09-17T10:50:01.801Z,21.70
2023-09-17T11:00:13.127Z,22.23
2023-09-17T11:10:29.450Z,22.71
2023-09-17T11:20:37.158Z,23.11
2023-09-17T11:31:00.009Z,23.28
2023-09-17T11:41:08.793Z,23.32
2023-09-17T11:51:25.918Z,23.30
2023-09-17T12:01:32.271Z,24.00
2023-09-17T12:11:37.072Z,24.52
2023-09-17T12:21:42.727Z,24.56
2023-09-17T12:31:46.621Z,24.64
2023-09-17T12:41:53.658Z,24.42
2023-09-17T12:51:57.933Z,24.60
2023-09-17T13:02:05.208Z,24.44
2023-09-17T13:12:09.533Z,24.53
2023-09-17T13:22:16.605Z,24.53
2023-09-17T13:32:21.834Z,24.82
2023-09-17T13:42:27.185Z,24.38
2023-09-17T13:52:31.256Z,24.40
2023-09-17T14:02:36.887Z,24.54
2023-09-17T14:12:50.713Z,24.96
2023-09-17T14:22:57.093Z,25.10
2023-09-17T14:33:02.306Z,25.08
2023-09-17T14:43:12.595Z,24.96
2023-09-17T14:53:16.975Z,25.02
2023-09-17T15:03:26.649Z,25.30
2023-09-17T15:13:34.074Z,24.98
2023-09-17T15:23:42.164Z,24.77
2023-09-17T15:33:46.744Z,24.82
2023-09-17T15:44:00.098Z,24.66
2023-09-17T15:54:07.012Z,24.52
2023-09-17T16:04:15.142Z,24.41
2023-09-17T16:14:19.209Z,24.36
2023-09-17T16:24:30.708Z,24.16
2023-09-17T16:34:38.602Z,24.04
2023-09-17T16:44:51.402Z,23.84
2023-09-17T16:54:55.435Z,23.69
2023-09-17T17:05:09.621Z,23.48
2023-09-17T17:15:13.361Z,23.18
2023-09-17T17:25:28.915Z,23.06
2023-09-17T17:35:32.610Z,22.61
2023-09-17T17:45:38.766Z,22.44
2023-09-17T17:55:41.938Z,22.22
2023-09-17T18:05:46.375Z,21.88
2023-09-17T18:15:49.441Z,21.65
2023-09-17T18:25:54.957Z,21.47
2023-09-17T18:35:58.155Z,21.46
2023-09-17T18:46:08.451Z,21.43
2023-09-17T18:56:11.615Z,21.27
2023-09-17T19:06:15.997Z,21.12
2023-09-17T19:16:19.040Z,20.97
2023-09-17T19:26:23.589Z,20.78
2023-09-17T19:36:26.651Z,20.60
2023-09-17T19:46:32.749Z,20.56
2023-09-17T19:56:36.133Z,20.52
2023-09-17T20:06:53.728Z,20.41
2023-09-17T20:16:58.234Z,20.44
2023-09-17T20:27:02.638Z,20.49
2023-09-17T20:37:07.981Z,20.50
2023-09-17T20:47:12.444Z,20.46
2023-09-17T20:57:17.628Z,20.43
2023-09-17T21:07:22.379Z,20.50
2023-09-17T21:17:25.461Z,20.57
2023-09-17T21:27:30.193Z,20.64
2023-09-17T21:37:33.241Z,20.70
2023-09-17T21:47:37.706Z,20.82
2023-09-17T21:57:40.820Z,20.86
2023-09-17T22:07:45.188Z,20.85
2023-09-17T22:17:48.215Z,20.85
2023-09-17T22:27:54.670Z,20.83
2023-09-17T22:37:57.872Z,20.88
2023-09-17T22:48:02.249Z,20.78
2023-09-17T22:58:06.056Z,20.83
2023-09-17T23:08:10.425Z,20.82
2023-09-17T23:18:15.697Z,20.68
2023-09-17T23:28:20.123Z,20.64
2023-09-17T23:38:23.730Z,20.58
2023-09-17T23:48:29.168Z,20.60
2023-09-17T23:58:32.224Z,20.60
